Impacts TAF Board INFO
FOR SITUATIONAL AWARENESS. NOT TO BE USED FOR FLIGHT PLANNING PURPOSES.
IDs:

KMSP - Minneapolis-St Paul, MN, US

Issued at 2049 UTC 21 Feb 2018
Updated at 2256 UTC 21 Feb 2018
Potential Impact None Slight Moderate High
Time<<22/23Z 23/00Z 23/01Z 23/02Z 23/03Z 23/04Z 23/05Z 23/06Z 23/07Z 23/08Z 23/09Z 23/10Z 23/11Z
Type PRVL
  [PRB30]  
VIS 2
  [0.5]  
CIG 15
  [9]  
Cover OVC
  [OVC]  
FltCat IFR
  [LIFR]  
WX -SN
  [SN]  
WDir 80
[80]
WSpd 9
  [9]  
WGst --
  [--]  

Raw TAF
KMSP 212049Z 2121/2224 20006KT P6SM FEW300
  FM220000 VRB04KT P6SM SCT250
  FM221200 08004KT P6SM OVC100
  FM221600 10006KT P6SM -SN OVC050
  FM221900 08009KT 2SM -SN OVC015
  PROB30 2220/2224 1/2SM SN OVC009


METAR Board
Radar Display
Forecast Discussion

FOR SITUATIONAL AWARENESS. NOT TO BE USED FOR FLIGHT PLANNING PURPOSES.